Time;durP1;ratioP1;P1;durP2;ratioP2;P2;SDS_P1;SDS_P2;PMS_P1;PMS_P2;Temp;Humidity;BMP_temperature;BMP_pressure;BME280_temperature;BME280_humidity;BME280_pressure;Samples;Min_cycle;Max_cycle;Signal;HPM_P1;HPM_P2
2024/01/11 00:00:51;;;;;;;14.40;6.43;;;;;-4.90;96744.00;;;;5054019;28;20724;-63
2024/01/11 00:03:18;;;;;;;13.67;6.37;;;;;-4.90;96746.00;;;;5054275;28;20218;-62
2024/01/11 00:05:47;;;;;;;11.70;6.23;;;;;-4.90;96746.00;;;;5054090;28;20198;-61
2024/01/11 00:08:14;;;;;;;11.97;6.80;;;;;-4.90;96702.00;;;;5053776;28;20197;-61
2024/01/11 00:10:43;;;;;;;13.93;7.00;;;;;-4.80;96743.00;;;;5053532;28;20221;-62
2024/01/11 00:13:11;;;;;;;9.10;5.87;;;;;-4.90;96741.00;;;;5053722;28;20213;-62
2024/01/11 00:15:39;;;;;;;19.20;8.43;;;;;-4.80;96742.00;;;;5053408;28;20199;-61
2024/01/11 00:18:06;;;;;;;7.43;6.00;;;;;-4.90;96741.00;;;;5053413;28;20204;-63
2024/01/11 00:20:34;;;;;;;5.83;5.10;;;;;-4.90;96727.00;;;;5053256;28;20196;-61
2024/01/11 00:23:03;;;;;;;10.13;7.70;;;;;-5.00;96729.00;;;;5053212;28;20213;-61
2024/01/11 00:25:30;;;;;;;7.30;5.80;;;;;-5.00;96746.00;;;;5053554;28;20196;-61
2024/01/11 00:27:58;;;;;;;7.93;7.17;;;;;-4.90;96742.00;;;;5052036;28;20225;-61
2024/01/11 00:30:25;;;;;;;11.60;6.47;;;;;-4.90;96740.00;;;;5053066;28;20193;-61
2024/01/11 00:32:53;;;;;;;8.03;7.23;;;;;-4.90;96744.00;;;;5053350;28;20289;-62
2024/01/11 00:35:20;;;;;;;9.20;5.70;;;;;-5.10;96745.00;;;;5053184;28;20198;-61
2024/01/11 00:37:48;;;;;;;5.47;4.57;;;;;-5.20;96733.00;;;;5053371;28;20190;-62
2024/01/11 00:40:17;;;;;;;7.50;5.43;;;;;-5.10;96747.00;;;;5054674;28;20189;-61
2024/01/11 00:42:47;;;;;;;4.87;4.07;;;;;-5.20;96734.00;;;;5053995;28;20210;-61
2024/01/11 00:45:15;;;;;;;8.90;5.63;;;;;-5.20;96729.00;;;;5054011;28;20186;-61
2024/01/11 00:47:42;;;;;;;12.47;6.83;;;;;-5.20;96741.00;;;;5053108;28;20204;-61
2024/01/11 00:50:10;;;;;;;12.93;6.87;;;;;-5.20;96733.00;;;;5053547;28;20192;-61
2024/01/11 00:52:38;;;;;;;5.33;4.93;;;;;-5.20;96745.00;;;;5053461;28;20299;-62
2024/01/11 00:55:06;;;;;;;8.33;4.37;;;;;-5.10;96732.00;;;;5052986;28;20357;-62
2024/01/11 00:57:35;;;;;;;6.47;5.73;;;;;-5.30;96740.00;;;;5052914;28;20196;-62
2024/01/11 01:00:03;;;;;;;10.90;7.40;;;;;-5.30;96743.00;;;;5051949;28;20649;-62
2024/01/11 01:02:30;;;;;;;32.73;6.47;;;;;-5.30;96748.00;;;;5051523;28;20618;-62
2024/01/11 01:04:58;;;;;;;13.83;7.23;;;;;-5.30;96739.00;;;;5052913;28;20201;-62
2024/01/11 01:07:25;;;;;;;7.47;5.43;;;;;-5.30;96745.00;;;;5053079;28;20216;-62
2024/01/11 01:09:53;;;;;;;5.90;5.33;;;;;-5.40;96748.00;;;;5054584;28;20200;-62
2024/01/11 01:12:20;;;;;;;6.87;3.90;;;;;-5.40;96750.00;;;;5056692;28;20662;-62
2024/01/11 01:14:49;;;;;;;9.37;5.47;;;;;-5.40;96753.00;;;;5056786;28;20190;-62
2024/01/11 01:17:19;;;;;;;4.60;4.20;;;;;-5.60;96750.00;;;;5056729;28;20501;-62
2024/01/11 01:19:46;;;;;;;9.40;5.93;;;;;-5.50;96753.00;;;;5056989;28;20195;-62
2024/01/11 01:22:14;;;;;;;13.73;6.87;;;;;-5.50;96752.00;;;;5056994;28;20283;-61
2024/01/11 01:24:41;;;;;;;13.93;6.10;;;;;-5.60;96741.00;;;;5056616;28;20193;-61
2024/01/11 01:27:08;;;;;;;11.83;7.00;;;;;-5.70;96759.00;;;;5056762;28;20200;-62
2024/01/11 01:29:36;;;;;;;4.67;4.30;;;;;-5.60;96769.00;;;;5056583;28;20200;-62
2024/01/11 01:32:05;;;;;;;8.47;4.53;;;;;-5.60;96764.00;;;;5055024;28;20237;-62
2024/01/11 01:34:33;;;;;;;11.90;8.10;;;;;-5.50;96757.00;;;;5056980;28;20203;-61
2024/01/11 01:37:00;;;;;;;6.67;4.73;;;;;-5.50;96763.00;;;;5056494;28;20193;-62
2024/01/11 01:39:28;;;;;;;9.73;6.37;;;;;-5.50;96767.00;;;;5056761;28;20201;-62
2024/01/11 01:41:55;;;;;;;21.23;5.03;;;;;-5.70;96766.00;;;;5055071;28;20589;-61
2024/01/11 01:44:23;;;;;;;4.37;4.03;;;;;-5.70;96758.00;;;;5054900;28;20196;-61
2024/01/11 01:46:52;;;;;;;9.53;5.80;;;;;-5.70;96757.00;;;;5056538;28;20525;-61
2024/01/11 01:49:22;;;;;;;6.03;5.40;;;;;-5.70;96760.00;;;;5056198;28;20657;-61
2024/01/11 01:51:50;;;;;;;7.67;5.53;;;;;-5.70;96765.00;;;;5054691;28;20665;-63
2024/01/11 01:54:18;;;;;;;15.00;5.37;;;;;-5.70;96762.00;;;;5056340;28;20662;-62
2024/01/11 01:56:45;;;;;;;6.93;5.40;;;;;-5.70;96758.00;;;;5056617;28;20194;-62
2024/01/11 01:59:13;;;;;;;4.67;4.07;;;;;-5.60;96759.00;;;;5055963;28;20563;-63
2024/01/11 02:01:41;;;;;;;6.90;5.90;;;;;-5.70;96761.00;;;;5056060;28;20268;-62
2024/01/11 02:04:09;;;;;;;8.73;6.50;;;;;-5.70;96764.00;;;;5055902;28;20544;-63
2024/01/11 02:06:38;;;;;;;5.33;4.47;;;;;-5.60;96775.00;;;;5056284;28;20189;-62
2024/01/11 02:09:08;;;;;;;6.63;5.33;;;;;-5.60;96770.00;;;;5055721;28;20199;-63
2024/01/11 02:11:35;;;;;;;9.20;6.07;;;;;-5.60;96781.00;;;;5055633;28;20228;-62
2024/01/11 02:14:03;;;;;;;5.13;4.67;;;;;-5.50;96778.00;;;;5054305;28;20200;-62
2024/01/11 02:16:30;;;;;;;5.23;4.80;;;;;-5.50;96783.00;;;;5056060;28;20193;-62
2024/01/11 02:18:58;;;;;;;4.83;4.13;;;;;-5.60;96779.00;;;;5055768;28;20189;-62
2024/01/11 02:21:27;;;;;;;9.87;5.70;;;;;-5.90;96769.00;;;;5054834;28;20193;-63
2024/01/11 02:24:07;;;;;;;26.17;6.87;;;;;-5.90;96780.00;;;;5055545;28;20196;-63
2024/01/11 02:26:35;;;;;;;7.07;5.50;;;;;-5.80;96783.00;;;;5055861;28;20266;-62
2024/01/11 02:29:03;;;;;;;5.47;4.97;;;;;-5.80;96782.00;;;;5055461;28;20196;-62
2024/01/11 02:31:30;;;;;;;12.17;5.83;;;;;-5.80;96784.00;;;;5055115;28;20212;-62
2024/01/11 02:33:58;;;;;;;8.13;4.23;;;;;-5.70;96778.00;;;;5055627;28;20201;-62
2024/01/11 02:36:27;;;;;;;6.83;6.03;;;;;-5.80;96783.00;;;;5055751;28;20202;-62
2024/01/11 02:38:55;;;;;;;8.40;5.97;;;;;-5.80;96772.00;;;;5055308;28;20577;-62
2024/01/11 02:41:26;;;;;;;7.30;5.30;;;;;-5.70;96776.00;;;;5054933;28;20207;-62
2024/01/11 02:43:54;;;;;;;4.80;4.00;;;;;-5.80;96770.00;;;;5055196;28;20735;-62
2024/01/11 02:46:21;;;;;;;7.17;5.20;;;;;-5.80;96770.00;;;;5055134;28;20198;-62
2024/01/11 02:48:49;;;;;;;5.27;4.77;;;;;-5.80;96764.00;;;;5055177;28;20536;-62
2024/01/11 02:51:16;;;;;;;9.17;5.70;;;;;-5.70;96762.00;;;;5055093;28;20193;-62
2024/01/11 02:53:44;;;;;;;4.77;3.90;;;;;-5.80;96765.00;;;;5054920;28;20216;-62
2024/01/11 02:56:11;;;;;;;4.83;3.87;;;;;-5.70;96770.00;;;;5054906;28;20612;-62
2024/01/11 02:58:40;;;;;;;5.30;4.50;;;;;-5.80;96762.00;;;;5054855;28;20200;-62
2024/01/11 03:01:07;;;;;;;5.60;4.33;;;;;-5.70;96774.00;;;;5055494;28;20234;-62
2024/01/11 03:03:35;;;;;;;9.50;5.97;;;;;-5.80;96770.00;;;;5054705;28;20204;-62
2024/01/11 03:06:03;;;;;;;6.00;5.40;;;;;-6.00;96758.00;;;;5055025;28;20188;-62
2024/01/11 03:08:30;;;;;;;7.90;4.90;;;;;-6.00;96763.00;;;;5054798;28;20189;-62
2024/01/11 03:10:57;;;;;;;4.17;3.73;;;;;-6.10;96762.00;;;;5055455;28;20192;-63
2024/01/11 03:13:25;;;;;;;5.77;5.27;;;;;-6.20;96759.00;;;;5054822;28;20229;-62
2024/01/11 03:15:54;;;;;;;7.87;4.00;;;;;-6.10;96762.00;;;;5054414;28;20191;-62
2024/01/11 03:18:21;;;;;;;6.13;4.53;;;;;-6.10;96756.00;;;;5055760;28;20197;-62
2024/01/11 03:20:49;;;;;;;5.03;4.63;;;;;-6.20;96734.00;;;;5059310;28;20202;-62
2024/01/11 03:23:16;;;;;;;5.37;4.23;;;;;-6.20;96740.00;;;;5056085;28;20569;-62
2024/01/11 03:25:44;;;;;;;5.20;4.70;;;;;-6.10;96747.00;;;;5054370;28;20200;-62
2024/01/11 03:28:11;;;;;;;4.47;4.07;;;;;-6.10;96742.00;;;;5054342;28;20199;-62
2024/01/11 03:30:38;;;;;;;6.27;4.70;;;;;-6.20;96743.00;;;;5054451;28;20199;-62
2024/01/11 03:33:07;;;;;;;3.70;3.40;;;;;-6.10;96740.00;;;;5053112;28;20220;-62
2024/01/11 03:35:35;;;;;;;4.33;3.93;;;;;-6.10;96746.00;;;;5054277;28;20197;-62
2024/01/11 03:38:02;;;;;;;4.03;3.73;;;;;-6.10;96736.00;;;;5054074;28;20194;-62
2024/01/11 03:40:33;;;;;;;9.73;4.60;;;;;-6.00;96751.00;;;;5054463;28;20197;-62
2024/01/11 03:43:00;;;;;;;5.07;4.60;;;;;-6.00;96741.00;;;;5053927;28;20208;-62
2024/01/11 03:45:28;;;;;;;5.10;4.70;;;;;-6.00;96740.00;;;;5054288;28;20219;-63
2024/01/11 03:47:55;;;;;;;5.87;3.63;;;;;-6.10;96742.00;;;;5052529;28;20236;-62
2024/01/11 03:50:24;;;;;;;5.03;4.53;;;;;-6.00;96740.00;;;;5053923;28;20199;-62
2024/01/11 03:52:51;;;;;;;6.23;5.67;;;;;-6.10;96745.00;;;;5053807;28;20220;-63
2024/01/11 03:55:19;;;;;;;4.47;3.70;;;;;-6.10;96752.00;;;;5054027;28;20192;-62
2024/01/11 03:57:46;;;;;;;3.80;3.50;;;;;-6.10;96744.00;;;;5052515;28;20204;-62
2024/01/11 04:00:14;;;;;;;4.03;3.67;;;;;-6.10;96740.00;;;;5052445;28;20652;-62
2024/01/11 04:02:42;;;;;;;3.80;3.50;;;;;-6.20;96734.00;;;;5053928;28;20216;-62
2024/01/11 04:05:10;;;;;;;12.23;4.77;;;;;-6.20;96727.00;;;;5054082;28;20547;-63
2024/01/11 04:07:38;;;;;;;10.93;5.10;;;;;-6.10;96741.00;;;;5054128;28;20192;-62
2024/01/11 04:10:08;;;;;;;8.60;5.50;;;;;-6.10;96746.00;;;;5053432;28;20200;-62
2024/01/11 04:12:36;;;;;;;8.07;5.00;;;;;-6.00;96740.00;;;;5053983;28;20221;-63
2024/01/11 04:15:03;;;;;;;6.90;4.43;;;;;-6.20;96740.00;;;;5054010;28;20204;-62
2024/01/11 04:17:31;;;;;;;4.73;4.33;;;;;-6.30;96747.00;;;;5052137;28;20215;-62
2024/01/11 04:19:59;;;;;;;6.70;5.30;;;;;-6.30;96744.00;;;;5053321;28;20194;-63
2024/01/11 04:22:28;;;;;;;3.83;3.53;;;;;-6.20;96747.00;;;;5053529;28;20214;-63
2024/01/11 04:24:57;;;;;;;9.47;4.47;;;;;-6.20;96740.00;;;;5054339;28;20198;-62
2024/01/11 04:27:24;;;;;;;6.50;3.73;;;;;-6.20;96733.00;;;;5053670;28;20205;-62
2024/01/11 04:29:52;;;;;;;7.33;6.53;;;;;-6.20;96740.00;;;;5053442;28;20200;-62
2024/01/11 04:32:19;;;;;;;5.93;4.23;;;;;-6.20;96733.00;;;;5053141;28;20581;-63
2024/01/11 04:34:47;;;;;;;7.63;4.63;;;;;-6.20;96736.00;;;;5053144;28;20193;-63
2024/01/11 04:37:14;;;;;;;6.87;4.73;;;;;-6.20;96739.00;;;;5053212;28;20192;-62
2024/01/11 04:39:42;;;;;;;5.23;4.73;;;;;-6.20;96748.00;;;;5053200;28;20222;-63
2024/01/11 04:42:10;;;;;;;7.83;5.63;;;;;-6.30;96735.00;;;;5053004;28;20215;-63
2024/01/11 04:44:38;;;;;;;7.30;4.87;;;;;-6.20;96739.00;;;;5052955;28;20188;-62
2024/01/11 04:47:06;;;;;;;6.27;5.57;;;;;-6.20;96746.00;;;;5053239;28;20199;-62
2024/01/11 04:49:33;;;;;;;5.53;4.90;;;;;-6.30;96743.00;;;;5053012;28;20193;-62
2024/01/11 04:52:00;;;;;;;6.87;5.87;;;;;-6.30;96745.00;;;;5053019;28;20212;-63
2024/01/11 04:54:28;;;;;;;5.97;5.47;;;;;-6.30;96742.00;;;;5053510;28;20207;-63
2024/01/11 04:56:55;;;;;;;9.13;5.30;;;;;-6.20;96748.00;;;;5052822;28;20575;-62
2024/01/11 04:59:24;;;;;;;5.90;5.30;;;;;-6.30;96743.00;;;;5053309;28;20192;-62
2024/01/11 05:01:52;;;;;;;4.23;3.87;;;;;-6.30;96749.00;;;;5053357;28;20218;-63
2024/01/11 05:04:19;;;;;;;4.40;3.87;;;;;-6.30;96735.00;;;;5053160;28;20211;-63
2024/01/11 05:06:46;;;;;;;6.00;5.03;;;;;-6.20;96735.00;;;;5052932;28;20200;-63
2024/01/11 05:09:14;;;;;;;7.57;5.07;;;;;-6.20;96741.00;;;;5052844;28;20193;-63
2024/01/11 05:11:42;;;;;;;7.37;5.70;;;;;-6.20;96734.00;;;;5053046;28;20254;-63
2024/01/11 05:14:09;;;;;;;6.33;5.00;;;;;-6.10;96747.00;;;;5052838;28;20584;-63
2024/01/11 05:16:39;;;;;;;4.13;3.83;;;;;-6.10;96751.00;;;;5052759;28;20200;-63
2024/01/11 05:19:07;;;;;;;8.57;5.77;;;;;-6.30;96753.00;;;;5053317;28;20192;-63
2024/01/11 05:21:34;;;;;;;4.53;4.03;;;;;-6.40;96755.00;;;;5053050;28;20534;-63
2024/01/11 05:24:03;;;;;;;4.50;4.10;;;;;-6.50;96755.00;;;;5052867;28;20644;-63
2024/01/11 05:26:30;;;;;;;5.37;4.87;;;;;-6.50;96748.00;;;;5052582;28;20196;-63
2024/01/11 05:28:57;;;;;;;9.23;5.43;;;;;-6.50;96759.00;;;;5052591;28;20190;-63
2024/01/11 05:31:25;;;;;;;6.50;5.30;;;;;-6.40;96764.00;;;;5052464;28;20197;-63
2024/01/11 05:33:54;;;;;;;7.97;5.37;;;;;-6.50;96771.00;;;;5053007;28;20224;-62
2024/01/11 05:36:23;;;;;;;9.70;6.60;;;;;-6.50;96773.00;;;;5052531;28;20195;-63
2024/01/11 05:38:50;;;;;;;8.70;6.97;;;;;-6.50;96771.00;;;;5052540;28;20188;-63
2024/01/11 05:41:17;;;;;;;16.20;7.00;;;;;-6.50;96775.00;;;;5052572;28;20232;-62
2024/01/11 05:43:45;;;;;;;8.43;7.07;;;;;-6.50;96780.00;;;;5052508;28;20209;-62
2024/01/11 05:46:12;;;;;;;7.83;6.00;;;;;-6.40;96781.00;;;;5052499;28;20196;-63
2024/01/11 05:48:40;;;;;;;4.70;4.23;;;;;-6.60;96787.00;;;;5053257;28;20204;-63
2024/01/11 05:51:10;;;;;;;7.27;6.57;;;;;-6.60;96780.00;;;;5052619;28;20196;-63
2024/01/11 05:53:37;;;;;;;3.67;3.23;;;;;-6.60;96782.00;;;;5052598;28;20712;-63
2024/01/11 05:56:09;;;;;;;7.53;5.57;;;;;-6.60;96789.00;;;;5052760;28;20203;-63
2024/01/11 05:58:37;;;;;;;4.63;3.93;;;;;-6.60;96779.00;;;;5056105;28;20633;-63
2024/01/11 06:01:05;;;;;;;5.63;5.13;;;;;-6.70;96784.00;;;;5056420;28;20192;-63
2024/01/11 06:03:34;;;;;;;11.67;6.80;;;;;-6.60;96787.00;;;;5056127;28;20554;-63
2024/01/11 06:06:01;;;;;;;10.87;7.63;;;;;-6.60;96788.00;;;;5056480;28;20515;-63
2024/01/11 06:08:31;;;;;;;9.93;7.70;;;;;-6.60;96779.00;;;;5055890;28;20239;-63
2024/01/11 06:10:59;;;;;;;10.67;7.37;;;;;-6.60;96787.00;;;;5056009;28;20671;-63
2024/01/11 06:13:27;;;;;;;8.77;7.77;;;;;-6.70;96789.00;;;;5055635;28;20247;-63
2024/01/11 06:15:55;;;;;;;11.53;8.43;;;;;-6.70;96788.00;;;;5055894;28;20192;-63
2024/01/11 06:18:22;;;;;;;6.00;4.97;;;;;-6.60;96793.00;;;;5055603;28;20200;-63
2024/01/11 06:20:50;;;;;;;8.73;6.20;;;;;-6.60;96789.00;;;;5055525;28;20197;-64
2024/01/11 06:23:19;;;;;;;7.07;5.63;;;;;-6.60;96781.00;;;;5055389;28;20208;-62
2024/01/11 06:25:48;;;;;;;23.50;7.77;;;;;-6.60;96782.00;;;;5055357;28;20675;-62
2024/01/11 06:28:15;;;;;;;17.43;6.67;;;;;-6.60;96781.00;;;;5055676;28;20528;-62
2024/01/11 06:30:43;;;;;;;8.00;5.27;;;;;-6.60;96792.00;;;;5055592;28;20202;-63
2024/01/11 06:33:10;;;;;;;6.67;5.70;;;;;-6.60;96783.00;;;;5055667;28;20216;-62
2024/01/11 06:35:38;;;;;;;9.07;6.60;;;;;-6.70;96788.00;;;;5055820;28;20188;-62
2024/01/11 06:38:05;;;;;;;21.43;6.27;;;;;-6.70;96794.00;;;;5055802;28;20295;-62
2024/01/11 06:40:33;;;;;;;10.90;7.80;;;;;-6.70;96790.00;;;;5054159;28;20202;-62
2024/01/11 06:43:01;;;;;;;9.10;6.77;;;;;-6.60;96794.00;;;;5055708;28;20208;-62
2024/01/11 06:45:29;;;;;;;7.03;6.27;;;;;-6.70;96800.00;;;;5055224;28;20210;-62
2024/01/11 06:47:56;;;;;;;11.20;5.53;;;;;-6.70;96804.00;;;;5055061;28;20188;-63
2024/01/11 06:50:24;;;;;;;10.30;8.13;;;;;-6.80;96805.00;;;;5055088;28;20199;-63
2024/01/11 06:52:51;;;;;;;7.33;5.10;;;;;-6.90;96788.00;;;;5055295;28;20220;-63
2024/01/11 06:55:19;;;;;;;6.73;6.17;;;;;-6.90;96807.00;;;;5055157;28;20668;-63
2024/01/11 06:57:48;;;;;;;14.57;8.73;;;;;-6.80;96809.00;;;;5055237;28;20193;-63
2024/01/11 07:00:18;;;;;;;8.30;6.73;;;;;-6.80;96810.00;;;;5055300;28;20185;-63
2024/01/11 07:02:45;;;;;;;10.77;7.70;;;;;-6.90;96811.00;;;;5053778;28;20217;-63
2024/01/11 07:05:15;;;;;;;9.37;6.93;;;;;-6.70;96809.00;;;;5055059;28;20196;-63
2024/01/11 07:07:42;;;;;;;5.10;4.70;;;;;-6.80;96814.00;;;;5054537;28;20197;-64
2024/01/11 07:10:10;;;;;;;10.27;6.50;;;;;-6.80;96829.00;;;;5053639;28;20574;-62
2024/01/11 07:12:42;;;;;;;8.90;7.10;;;;;-6.80;96834.00;;;;5055123;28;20219;-62
2024/01/11 07:15:11;;;;;;;7.30;5.83;;;;;-6.80;96828.00;;;;5054703;28;20184;-62
2024/01/11 07:17:39;;;;;;;5.30;4.80;;;;;-6.90;96821.00;;;;5054795;28;20707;-63
2024/01/11 07:20:09;;;;;;;8.20;5.83;;;;;-7.10;96828.00;;;;5054882;28;20196;-62
2024/01/11 07:22:36;;;;;;;4.03;3.47;;;;;-7.10;96830.00;;;;5054545;28;20673;-63
2024/01/11 07:25:04;;;;;;;5.27;4.80;;;;;-7.10;96823.00;;;;5054542;28;20201;-63
2024/01/11 07:27:32;;;;;;;5.20;4.80;;;;;-7.00;96842.00;;;;5054744;28;20192;-63
2024/01/11 07:29:59;;;;;;;4.57;4.27;;;;;-6.90;96846.00;;;;5054709;28;20200;-62
2024/01/11 07:32:27;;;;;;;8.33;5.13;;;;;-6.80;96853.00;;;;5054673;28;20591;-62
2024/01/11 07:34:56;;;;;;;5.97;5.37;;;;;-6.80;96833.00;;;;5054448;28;20255;-63
2024/01/11 07:37:25;;;;;;;5.70;5.20;;;;;-5.90;96841.00;;;;5054535;28;20202;-64
2024/01/11 07:39:53;;;;;;;8.60;3.97;;;;;-5.30;96828.00;;;;5054316;28;20347;-64
2024/01/11 07:42:20;;;;;;;5.47;5.00;;;;;-5.10;96842.00;;;;5054203;28;20224;-64
2024/01/11 07:44:47;;;;;;;6.00;5.07;;;;;-5.30;96838.00;;;;5054372;28;20192;-63
2024/01/11 07:47:15;;;;;;;7.97;6.43;;;;;-5.50;96846.00;;;;5054111;28;20214;-62
2024/01/11 07:49:42;;;;;;;5.33;4.83;;;;;-5.60;96823.00;;;;5054583;28;20197;-62
2024/01/11 07:52:11;;;;;;;12.10;7.47;;;;;-5.70;96835.00;;;;5053980;28;20225;-63
2024/01/11 07:54:38;;;;;;;15.40;9.40;;;;;-5.70;96837.00;;;;5054538;28;20214;-64
2024/01/11 07:57:06;;;;;;;16.97;11.10;;;;;-5.70;96838.00;;;;5058818;28;20194;-64
2024/01/11 07:59:35;;;;;;;14.93;10.17;;;;;-5.90;96844.00;;;;5050752;28;20560;-64
2024/01/11 08:02:07;;;;;;;10.87;9.47;;;;;-5.80;96848.00;;;;5050949;28;20213;-64
2024/01/11 08:04:34;;;;;;;27.57;13.30;;;;;-5.80;96852.00;;;;5050897;28;20610;-64
2024/01/11 08:07:02;;;;;;;12.10;9.00;;;;;-5.80;96860.00;;;;5052233;28;20590;-64
2024/01/11 08:09:31;;;;;;;8.53;5.50;;;;;-5.80;96851.00;;;;5051769;28;20201;-64
2024/01/11 08:11:58;;;;;;;12.43;9.17;;;;;-5.80;96858.00;;;;5051061;28;20634;-63
2024/01/11 08:14:26;;;;;;;8.50;7.53;;;;;-5.70;96875.00;;;;5051774;28;20241;-64
2024/01/11 08:16:53;;;;;;;9.63;6.13;;;;;-5.80;96881.00;;;;5050207;28;20202;-63
2024/01/11 08:19:21;;;;;;;5.77;5.33;;;;;-5.70;96880.00;;;;5050562;28;20188;-62
2024/01/11 08:21:48;;;;;;;5.97;5.30;;;;;-5.80;96889.00;;;;5052160;28;20217;-63
2024/01/11 08:24:17;;;;;;;7.80;7.03;;;;;-5.90;96894.00;;;;5051373;28;20205;-62
2024/01/11 08:26:46;;;;;;;5.13;4.73;;;;;-5.80;96896.00;;;;5051924;28;20285;-62
2024/01/11 08:29:15;;;;;;;5.93;4.97;;;;;-5.70;96898.00;;;;5051220;28;20207;-64
2024/01/11 08:31:43;;;;;;;14.17;5.70;;;;;-5.60;96889.00;;;;5051857;28;20221;-62
2024/01/11 08:34:11;;;;;;;15.40;8.80;;;;;-5.50;96889.00;;;;5051090;28;20240;-62
2024/01/11 08:36:38;;;;;;;6.90;5.70;;;;;-5.50;96889.00;;;;5051787;28;20234;-62
2024/01/11 08:39:07;;;;;;;20.23;9.77;;;;;-5.50;96903.00;;;;5051102;28;20259;-62
2024/01/11 08:41:35;;;;;;;16.60;9.77;;;;;-5.40;96903.00;;;;5051527;28;20213;-62
2024/01/11 08:44:05;;;;;;;6.67;6.10;;;;;-5.30;96900.00;;;;5049904;28;20250;-63
2024/01/11 08:46:34;;;;;;;19.53;8.90;;;;;-5.20;96906.00;;;;5051965;28;20396;-63
2024/01/11 08:49:03;;;;;;;7.20;6.47;;;;;-5.20;96896.00;;;;5051061;28;20203;-63
2024/01/11 08:51:31;;;;;;;11.73;7.27;;;;;-5.00;96913.00;;;;5051660;28;20204;-63
2024/01/11 08:53:59;;;;;;;11.93;9.50;;;;;-4.90;96897.00;;;;5049599;28;20218;-62
2024/01/11 08:56:27;;;;;;;8.77;7.87;;;;;-4.80;96900.00;;;;5051906;28;20280;-62
2024/01/11 08:58:55;;;;;;;11.53;8.07;;;;;-4.90;96897.00;;;;5049383;28;20192;-62
2024/01/11 09:01:24;;;;;;;5.57;4.27;;;;;-4.80;96899.00;;;;5051167;28;20666;-62
2024/01/11 09:03:52;;;;;;;9.20;8.23;;;;;-4.90;96896.00;;;;5050971;28;20199;-62
2024/01/11 09:06:19;;;;;;;9.50;6.03;;;;;-4.80;96920.00;;;;5051235;28;20206;-63
2024/01/11 09:08:50;;;;;;;8.07;6.10;;;;;-4.70;96920.00;;;;5051126;28;20388;-63
2024/01/11 09:11:18;;;;;;;8.80;7.27;;;;;-4.60;96915.00;;;;5051435;28;20192;-63
2024/01/11 09:13:45;;;;;;;8.47;7.27;;;;;-4.50;96903.00;;;;5051083;28;20223;-62
2024/01/11 09:16:16;;;;;;;7.83;6.97;;;;;-4.60;96909.00;;;;5051134;28;20276;-63
2024/01/11 09:18:45;;;;;;;10.50;7.40;;;;;-4.30;96911.00;;;;5051549;28;20190;-63
2024/01/11 09:21:13;;;;;;;6.80;5.67;;;;;-4.20;96902.00;;;;5046650;28;20206;-63
2024/01/11 09:23:40;;;;;;;5.53;5.13;;;;;-4.10;96908.00;;;;5051093;28;20261;-62
2024/01/11 09:26:08;;;;;;;9.27;6.53;;;;;-4.10;96901.00;;;;5050710;28;20194;-63
2024/01/11 09:28:35;;;;;;;8.70;6.00;;;;;-3.90;96901.00;;;;5050973;28;20225;-62
2024/01/11 09:31:03;;;;;;;6.70;4.93;;;;;-3.70;96913.00;;;;5051140;28;20197;-62
2024/01/11 09:33:31;;;;;;;6.87;5.60;;;;;-3.50;96906.00;;;;5054253;28;20749;-62
2024/01/11 09:36:00;;;;;;;8.30;6.63;;;;;-3.60;96911.00;;;;5053784;28;20200;-63
2024/01/11 09:38:27;;;;;;;5.97;4.93;;;;;-3.60;96906.00;;;;5054214;28;20686;-63
2024/01/11 09:41:07;;;;;;;8.43;7.53;;;;;-3.30;96897.00;;;;5054636;28;20216;-63
2024/01/11 09:43:35;;;;;;;7.80;6.63;;;;;-3.10;96906.00;;;;5053580;28;20698;-63
2024/01/11 09:46:06;;;;;;;9.90;8.40;;;;;-3.00;96910.00;;;;5054830;28;20194;-61
2024/01/11 09:48:35;;;;;;;7.70;5.63;;;;;-3.00;96911.00;;;;5053638;28;20684;-62
2024/01/11 09:51:04;;;;;;;10.43;6.43;;;;;-2.90;96906.00;;;;5054130;28;20205;-62
2024/01/11 09:53:34;;;;;;;8.03;6.70;;;;;-2.90;96913.00;;;;5053483;28;20219;-62
2024/01/11 09:56:02;;;;;;;13.77;6.10;;;;;-2.90;96909.00;;;;5053936;28;20211;-62
2024/01/11 09:58:30;;;;;;;6.97;6.27;;;;;-2.50;96901.00;;;;5053354;28;20203;-62
2024/01/11 10:00:59;;;;;;;8.63;6.97;;;;;-2.30;96907.00;;;;5054351;28;20204;-63
2024/01/11 10:03:27;;;;;;;6.90;5.80;;;;;-2.20;96907.00;;;;5053204;28;20306;-62
2024/01/11 10:05:58;;;;;;;7.47;5.40;;;;;-1.90;96913.00;;;;5054531;28;20609;-62
2024/01/11 10:08:27;;;;;;;7.83;5.73;;;;;-1.80;96906.00;;;;5053993;28;20644;-62
2024/01/11 10:10:54;;;;;;;6.23;5.63;;;;;-1.70;96907.00;;;;5053917;28;20666;-62
2024/01/11 10:13:29;;;;;;;5.77;5.27;;;;;-1.70;96911.00;;;;5053534;28;20235;-62
2024/01/11 10:16:08;;;;;;;6.93;5.77;;;;;-1.60;96914.00;;;;5050498;28;20671;-62
2024/01/11 10:18:35;;;;;;;7.00;5.23;;;;;-1.40;96914.00;;;;5056235;28;20196;-62
2024/01/11 10:21:03;;;;;;;6.17;5.53;;;;;-1.30;96913.00;;;;5054064;28;20552;-63
2024/01/11 10:23:35;;;;;;;8.23;6.70;;;;;-1.40;96905.00;;;;5053814;28;20266;-63
2024/01/11 10:26:02;;;;;;;5.83;5.27;;;;;-1.40;96905.00;;;;5053505;28;20631;-63
2024/01/11 10:28:36;;;;;;;6.07;5.57;;;;;-1.20;96900.00;;;;5052847;28;20211;-62
2024/01/11 10:31:04;;;;;;;6.40;5.80;;;;;-1.40;96895.00;;;;5053695;28;20192;-62
2024/01/11 10:33:31;;;;;;;5.00;4.43;;;;;-1.30;96891.00;;;;5053440;28;20216;-62
2024/01/11 10:35:59;;;;;;;6.00;5.50;;;;;-1.00;96891.00;;;;5052585;28;20700;-61
2024/01/11 10:38:30;;;;;;;6.23;4.67;;;;;-1.00;96887.00;;;;5051862;28;20659;-62
2024/01/11 10:41:04;;;;;;;8.53;7.37;;;;;-0.90;96890.00;;;;5052448;28;20200;-62
2024/01/11 10:43:37;;;;;;;6.03;5.43;;;;;-0.70;96887.00;;;;5047618;28;20220;-62
2024/01/11 10:46:07;;;;;;;4.77;4.37;;;;;-0.50;96885.00;;;;5053030;28;20259;-62
2024/01/11 10:48:40;;;;;;;7.13;4.83;;;;;-0.80;96884.00;;;;5053496;28;20212;-63
2024/01/11 10:51:12;;;;;;;7.00;4.20;;;;;-1.00;96880.00;;;;5052764;28;20200;-62
2024/01/11 10:53:45;;;;;;;7.23;6.47;;;;;-0.80;96881.00;;;;5053398;28;20244;-63
2024/01/11 10:56:15;;;;;;;7.03;5.23;;;;;-0.80;96873.00;;;;5055962;28;20253;-62
2024/01/11 10:58:44;;;;;;;11.83;7.67;;;;;-0.70;96881.00;;;;5053243;28;20725;-62
2024/01/11 11:01:13;;;;;;;11.50;7.53;;;;;-0.60;96884.00;;;;5053229;28;20200;-62
2024/01/11 11:03:42;;;;;;;8.80;4.80;;;;;-0.70;96878.00;;;;5052795;28;20699;-62
2024/01/11 11:06:12;;;;;;;5.63;5.13;;;;;-0.20;96875.00;;;;5051981;28;20203;-63
2024/01/11 11:08:40;;;;;;;6.60;5.63;;;;;0.30;96878.00;;;;5053374;28;20196;-63
2024/01/11 11:11:08;;;;;;;7.83;7.00;;;;;0.90;96869.00;;;;5052338;28;20204;-62
2024/01/11 11:13:38;;;;;;;5.97;5.40;;;;;1.20;96880.00;;;;5053107;28;20225;-62
2024/01/11 11:16:06;;;;;;;16.43;7.33;;;;;2.00;96854.00;;;;5052583;28;20701;-62
2024/01/11 11:18:35;;;;;;;6.53;5.50;;;;;2.90;96852.00;;;;5051587;28;20202;-61
2024/01/11 11:21:07;;;;;;;5.93;4.27;;;;;3.90;96845.00;;;;5052174;28;20204;-63
2024/01/11 11:23:35;;;;;;;7.00;6.33;;;;;5.20;96832.00;;;;5052836;28;20227;-63
2024/01/11 11:26:02;;;;;;;7.17;6.47;;;;;5.90;96820.00;;;;5052278;28;20196;-63
2024/01/11 11:28:30;;;;;;;9.03;4.50;;;;;6.80;96836.00;;;;5052856;28;20277;-63
2024/01/11 11:31:03;;;;;;;8.40;5.60;;;;;7.40;96827.00;;;;5052101;28;20204;-66
2024/01/11 11:33:31;;;;;;;8.53;5.90;;;;;8.00;96818.00;;;;5052446;28;20243;-63
2024/01/11 11:35:59;;;;;;;6.27;5.43;;;;;8.10;96815.00;;;;5050567;28;20227;-65
2024/01/11 11:38:29;;;;;;;11.57;4.57;;;;;8.60;96816.00;;;;5052365;28;20675;-65
2024/01/11 11:40:58;;;;;;;4.63;4.23;;;;;9.30;96824.00;;;;5050011;28;20218;-63
2024/01/11 11:43:28;;;;;;;6.10;4.83;;;;;9.40;96824.00;;;;5052345;28;20703;-62
2024/01/11 11:45:58;;;;;;;3.53;3.23;;;;;10.90;96820.00;;;;5050884;28;20207;-63
2024/01/11 11:48:52;;;;;;;7.60;6.17;;;;;10.40;96818.00;;;;5051967;28;20624;-63
2024/01/11 11:51:20;;;;;;;5.97;5.37;;;;;10.70;96819.00;;;;5051811;28;20198;-62
2024/01/11 11:53:50;;;;;;;5.33;4.83;;;;;12.60;96830.00;;;;5051245;28;20304;-63
2024/01/11 11:56:19;;;;;;;8.93;5.60;;;;;13.90;96814.00;;;;5051289;28;20215;-63
2024/01/11 11:58:49;;;;;;;6.73;5.23;;;;;14.20;96794.00;;;;5052131;28;20278;-63
2024/01/11 12:01:19;;;;;;;6.77;5.47;;;;;14.80;96805.00;;;;5051700;28;20207;-63
2024/01/11 12:03:50;;;;;;;10.93;6.77;;;;;15.90;96801.00;;;;5050749;28;20223;-63
2024/01/11 12:06:19;;;;;;;7.77;4.53;;;;;17.00;96796.00;;;;5051783;28;20622;-63
2024/01/11 12:08:47;;;;;;;8.17;4.70;;;;;16.60;96797.00;;;;5051811;28;20204;-63
2024/01/11 12:11:16;;;;;;;6.03;5.13;;;;;18.30;96794.00;;;;5051587;28;20200;-64
2024/01/11 12:13:44;;;;;;;8.97;5.23;;;;;19.50;96797.00;;;;5051411;28;20216;-64
2024/01/11 12:16:12;;;;;;;7.37;5.53;;;;;19.10;96795.00;;;;5051534;28;20231;-63
2024/01/11 12:18:42;;;;;;;6.87;4.93;;;;;20.10;96794.00;;;;5050522;28;20663;-64
2024/01/11 12:21:09;;;;;;;6.17;5.13;;;;;19.00;96798.00;;;;5050784;28;20196;-63